Time;durP1;ratioP1;P1;durP2;ratioP2;P2;SDS_P1;SDS_P2;PMS_P1;PMS_P2;Temp;Humidity;BMP_temperature;BMP_pressure;BME280_temperature;BME280_humidity;BME280_pressure;Samples;Min_cycle;Max_cycle;Signal;HPM_P1;HPM_P2
2022/10/01 00:00:53;;;;;;;13.70;9.17;;;11.50;99.90;;;;;;5072484;28;20366;-68
2022/10/01 00:03:20;;;;;;;14.00;9.23;;;11.50;99.90;;;;;;5072742;28;20299;-67
2022/10/01 00:05:46;;;;;;;11.47;9.00;;;11.50;99.90;;;;;;5072448;28;20275;-68
2022/10/01 00:08:15;;;;;;;17.87;10.53;;;11.40;99.90;;;;;;5072474;28;20778;-67
2022/10/01 00:10:44;;;;;;;11.70;10.13;;;11.50;99.90;;;;;;5072644;28;20289;-69
2022/10/01 00:13:10;;;;;;;12.33;9.80;;;11.40;99.90;;;;;;5072628;28;20279;-67
2022/10/01 00:15:40;;;;;;;13.27;11.57;;;11.40;99.90;;;;;;5072549;28;20291;-67
2022/10/01 00:18:07;;;;;;;15.40;10.70;;;11.40;99.90;;;;;;5071937;28;20778;-67
2022/10/01 00:20:32;;;;;;;12.93;9.17;;;11.40;99.90;;;;;;5054614;28;20289;-67
2022/10/01 00:22:58;;;;;;;12.60;10.00;;;11.40;99.90;;;;;;5071884;28;20295;-67
2022/10/01 00:25:24;;;;;;;15.23;11.00;;;11.40;99.90;;;;;;5072481;28;20052;-67
2022/10/01 00:27:50;;;;;;;14.87;10.80;;;11.40;99.90;;;;;;5072272;28;20048;-68
2022/10/01 00:30:16;;;;;;;14.00;11.60;;;11.40;99.90;;;;;;5072496;28;20056;-68
2022/10/01 00:32:42;;;;;;;12.40;9.30;;;11.30;99.90;;;;;;5072600;28;20099;-67
2022/10/01 00:35:08;;;;;;;14.97;10.13;;;11.30;99.90;;;;;;5054449;28;20754;-68
2022/10/01 00:37:36;;;;;;;11.63;9.90;;;11.30;99.90;;;;;;5073249;28;20182;-68
2022/10/01 00:40:04;;;;;;;11.93;10.73;;;11.30;99.90;;;;;;5075813;28;20397;-68
2022/10/01 00:42:30;;;;;;;12.67;10.37;;;11.30;99.90;;;;;;5076177;28;20303;-68
2022/10/01 00:44:57;;;;;;;12.50;9.67;;;11.30;99.90;;;;;;5075727;28;20301;-68
2022/10/01 00:47:26;;;;;;;13.53;10.73;;;11.30;99.90;;;;;;5075936;28;20278;-68
2022/10/01 00:49:58;;;;;;;12.90;9.27;;;11.20;99.90;;;;;;5075702;28;20301;-68
2022/10/01 00:52:27;;;;;;;11.53;10.33;;;11.20;99.90;;;;;;5075971;28;20263;-68
2022/10/01 00:55:02;;;;;;;12.47;10.37;;;11.20;99.90;;;;;;5057842;28;20694;-68
2022/10/01 00:57:29;;;;;;;10.95;9.25;;;11.30;99.90;;;;;;5075900;28;20306;-68
2022/10/01 00:59:57;;;;;;;15.53;10.50;;;11.20;99.90;;;;;;5075558;28;20088;-68
2022/10/01 01:02:23;;;;;;;13.80;10.03;;;11.20;99.90;;;;;;5075765;28;20298;-68
2022/10/01 01:04:49;;;;;;;12.77;10.07;;;11.20;99.90;;;;;;5075502;28;20333;-69
2022/10/01 01:07:15;;;;;;;13.53;10.83;;;11.20;99.90;;;;;;5075693;28;20480;-68
2022/10/01 01:09:47;;;;;;;11.97;10.33;;;11.20;99.90;;;;;;5075631;28;20040;-68
2022/10/01 01:12:34;;;;;;;13.27;10.53;;;11.20;99.90;;;;;;5075431;28;20106;-68
2022/10/01 01:15:09;;;;;;;14.83;12.13;;;11.20;99.90;;;;;;5075232;28;20631;-68
2022/10/01 01:18:05;;;;;;;14.95;11.38;;;11.20;99.90;;;;;;5075241;28;20356;-68
2022/10/01 01:21:07;;;;;;;14.40;10.93;;;11.10;99.90;;;;;;5075768;28;20131;-67
2022/10/01 01:23:45;;;;;;;14.23;10.10;;;11.10;99.90;;;;;;5075415;28;20040;-68
2022/10/01 01:26:30;;;;;;;14.53;9.90;;;11.20;99.90;;;;;;5075122;28;20333;-68
2022/10/01 01:29:10;;;;;;;13.68;10.85;;;11.20;99.90;;;;;;5075212;28;20326;-68
2022/10/01 01:31:45;;;;;;;15.03;10.60;;;11.20;99.90;;;;;;5075567;28;20044;-68
2022/10/01 01:34:21;;;;;;;17.92;9.57;;;11.10;99.90;;;;;;5075008;28;20302;-68
2022/10/01 01:36:54;;;;;;;15.53;10.23;;;11.20;99.90;;;;;;5074965;28;20614;-68
2022/10/01 01:39:22;;;;;;;12.40;9.27;;;11.10;99.90;;;;;;5057647;28;20669;-68
2022/10/01 01:41:54;;;;;;;15.53;10.00;;;11.10;99.90;;;;;;5074937;28;20286;-68
2022/10/01 01:44:25;;;;;;;11.27;9.10;;;11.10;99.90;;;;;;5075132;28;20278;-68
2022/10/01 01:46:55;;;;;;;13.47;9.73;;;11.20;99.90;;;;;;5075078;28;20278;-68
2022/10/01 01:49:22;;;;;;;11.83;9.07;;;11.10;99.90;;;;;;5074173;28;20283;-68
2022/10/01 01:52:12;;;;;;;14.80;8.87;;;11.20;99.90;;;;;;5075073;28;20277;-68
2022/10/01 01:54:39;;;;;;;12.23;8.87;;;11.20;99.90;;;;;;5057498;28;20291;-68
2022/10/01 01:57:05;;;;;;;15.53;10.27;;;11.10;99.90;;;;;;5074464;28;20758;-68
2022/10/01 01:59:32;;;;;;;12.33;9.50;;;11.10;99.90;;;;;;5074747;28;20294;-68
2022/10/01 02:01:59;;;;;;;10.40;8.03;;;11.10;99.90;;;;;;5074393;28;20331;-69
2022/10/01 02:04:47;;;;;;;12.53;9.67;;;11.10;99.90;;;;;;5074607;28;20370;-68
2022/10/01 02:07:27;;;;;;;12.50;8.60;;;11.20;99.90;;;;;;5074273;28;20353;-68
2022/10/01 02:10:10;;;;;;;11.17;8.30;;;11.20;99.90;;;;;;5074544;28;20279;-68
2022/10/01 02:13:02;;;;;;;9.07;7.27;;;11.20;99.90;;;;;;5074431;28;20275;-68
2022/10/01 02:15:49;;;;;;;11.33;7.60;;;11.20;99.90;;;;;;5074503;28;20318;-68
2022/10/01 02:18:59;;;;;;;8.07;7.03;;;11.20;99.90;;;;;;5074125;28;20340;-68
2022/10/01 02:21:30;;;;;;;9.63;6.90;;;11.20;99.90;;;;;;5026870;28;20287;-68
2022/10/01 02:24:08;;;;;;;9.40;7.20;;;11.20;99.90;;;;;;5056435;28;20279;-68
2022/10/01 02:26:36;;;;;;;9.17;7.17;;;11.20;99.90;;;;;;5073816;28;20854;-68
2022/10/01 02:29:10;;;;;;;8.77;6.70;;;11.20;99.90;;;;;;5073799;28;20786;-69
2022/10/01 02:31:36;;;;;;;7.80;6.22;;;11.20;99.90;;;;;;5074223;28;20275;-68
2022/10/01 02:34:06;;;;;;;8.23;6.30;;;11.20;99.90;;;;;;5073636;28;20438;-69
2022/10/01 02:36:34;;;;;;;8.00;6.10;;;11.30;99.90;;;;;;5073872;28;20565;-68
2022/10/01 02:39:03;;;;;;;8.97;7.00;;;11.30;99.90;;;;;;5073877;28;20278;-68
2022/10/01 02:41:35;;;;;;;7.63;5.80;;;11.30;99.90;;;;;;5073762;28;20279;-68
2022/10/01 02:44:14;;;;;;;10.10;6.80;;;11.30;99.90;;;;;;5056678;28;20303;-68
2022/10/01 02:47:06;;;;;;;8.27;5.43;;;11.30;99.90;;;;;;5073755;28;20326;-68
2022/10/01 02:49:34;;;;;;;6.70;5.47;;;11.30;99.90;;;;;;5062360;28;20378;-68
2022/10/01 02:52:16;;;;;;;8.10;5.87;;;11.30;99.90;;;;;;5073725;28;20805;-68
2022/10/01 02:54:59;;;;;;;8.03;5.30;;;11.40;99.90;;;;;;5073693;28;20373;-68
2022/10/01 02:57:26;;;;;;;9.03;5.93;;;11.30;99.90;;;;;;5073360;28;20268;-68
2022/10/01 02:59:58;;;;;;;7.80;5.67;;;11.40;99.90;;;;;;5073524;28;20274;-68
2022/10/01 03:02:26;;;;;;;7.80;5.47;;;11.40;99.90;;;;;;5073203;28;20307;-68
2022/10/01 03:04:55;;;;;;;6.63;5.10;;;11.40;99.90;;;;;;5073463;28;20319;-68
2022/10/01 03:07:21;;;;;;;6.77;4.87;;;11.40;99.90;;;;;;5073169;28;20344;-68
2022/10/01 03:09:48;;;;;;;7.83;5.03;;;11.40;99.90;;;;;;5073335;28;20619;-67
2022/10/01 03:12:15;;;;;;;7.87;5.23;;;11.40;99.90;;;;;;5073113;28;20094;-68
2022/10/01 03:14:43;;;;;;;5.90;4.30;;;11.40;99.90;;;;;;5073569;28;20275;-67
2022/10/01 03:17:09;;;;;;;7.10;4.40;;;11.40;99.90;;;;;;5072903;28;20283;-68
2022/10/01 03:19:35;;;;;;;5.73;3.60;;;11.40;99.90;;;;;;5073259;28;20283;-67
2022/10/01 03:22:01;;;;;;;7.03;4.00;;;11.40;99.90;;;;;;5055513;28;20399;-67
2022/10/01 03:24:27;;;;;;;5.00;3.10;;;11.40;99.90;;;;;;5072916;28;20056;-67
2022/10/01 03:26:54;;;;;;;5.00;3.20;;;11.50;99.90;;;;;;5073187;28;20047;-67
2022/10/01 03:29:20;;;;;;;5.90;3.63;;;11.50;99.90;;;;;;5072932;28;20048;-68
2022/10/01 03:31:45;;;;;;;6.87;3.23;;;11.50;99.90;;;;;;5055217;28;20294;-68
2022/10/01 03:34:12;;;;;;;5.60;3.37;;;11.50;99.90;;;;;;5055033;28;20040;-68
2022/10/01 03:36:38;;;;;;;6.10;2.93;;;11.50;99.90;;;;;;5072751;28;20496;-68
2022/10/01 03:39:04;;;;;;;6.47;3.10;;;11.50;99.90;;;;;;5073165;28;20786;-68
2022/10/01 03:41:30;;;;;;;6.90;3.90;;;11.50;99.90;;;;;;5072685;28;20388;-68
2022/10/01 03:43:55;;;;;;;5.63;3.20;;;11.50;99.90;;;;;;5073311;28;20044;-68
2022/10/01 03:46:21;;;;;;;5.90;3.27;;;11.50;99.90;;;;;;5072682;28;20048;-68
2022/10/01 03:48:48;;;;;;;5.63;3.70;;;11.50;99.90;;;;;;5072946;28;20037;-68
2022/10/01 03:51:14;;;;;;;5.77;3.37;;;11.50;99.90;;;;;;5072749;28;20041;-68
2022/10/01 03:53:40;;;;;;;4.77;3.20;;;11.50;99.90;;;;;;5073108;28;20301;-68
2022/10/01 03:56:06;;;;;;;5.37;3.33;;;11.50;99.90;;;;;;5072991;28;20278;-68
2022/10/01 03:58:32;;;;;;;6.70;3.70;;;11.50;99.90;;;;;;5072876;28;20443;-68
2022/10/01 04:00:59;;;;;;;5.10;3.73;;;11.50;99.90;;;;;;5054678;28;20289;-68
2022/10/01 04:03:25;;;;;;;5.00;3.67;;;11.50;99.90;;;;;;5072482;28;20299;-68
2022/10/01 04:05:51;;;;;;;5.83;4.40;;;11.50;99.90;;;;;;5073131;28;20665;-67
2022/10/01 04:08:16;;;;;;;5.47;3.80;;;11.50;99.90;;;;;;5072573;28;20056;-68
2022/10/01 04:10:42;;;;;;;6.10;4.80;;;11.50;99.90;;;;;;5054994;28;20052;-68
2022/10/01 04:13:08;;;;;;;5.63;4.50;;;11.60;99.90;;;;;;5074598;28;20049;-67
2022/10/01 04:15:34;;;;;;;7.00;4.27;;;11.50;99.90;;;;;;5076434;28;20053;-68
2022/10/01 04:18:04;;;;;;;5.87;4.43;;;11.50;99.90;;;;;;5076607;28;20291;-67
2022/10/01 04:20:31;;;;;;;7.07;4.40;;;11.50;99.90;;;;;;5076410;28;20051;-67
2022/10/01 04:22:56;;;;;;;6.00;4.53;;;11.50;99.90;;;;;;5076488;28;20298;-67
2022/10/01 04:25:22;;;;;;;6.10;3.93;;;11.60;99.90;;;;;;5076287;28;20283;-67
2022/10/01 04:27:57;;;;;;;6.97;4.30;;;11.60;99.90;;;;;;5058909;28;20045;-67
2022/10/01 04:30:24;;;;;;;6.00;4.23;;;11.70;99.90;;;;;;5075943;28;20505;-68
2022/10/01 04:32:50;;;;;;;6.00;4.63;;;11.60;99.90;;;;;;5076096;28;20279;-68
2022/10/01 04:35:16;;;;;;;8.80;5.17;;;11.60;99.90;;;;;;5076382;28;20278;-71
2022/10/01 04:37:41;;;;;;;7.90;5.23;;;11.60;99.90;;;;;;5058416;28;20048;-68
2022/10/01 04:40:09;;;;;;;6.00;4.73;;;11.70;99.90;;;;;;5058662;28;20049;-68
2022/10/01 04:42:39;;;;;;;8.33;4.40;;;11.70;99.90;;;;;;5075792;28;20052;-68
2022/10/01 04:45:06;;;;;;;7.40;5.03;;;11.70;99.90;;;;;;5076126;28;20271;-67
2022/10/01 04:47:32;;;;;;;8.33;4.87;;;11.70;99.90;;;;;;5058025;28;20321;-68
2022/10/01 04:49:57;;;;;;;7.27;4.63;;;11.70;99.90;;;;;;5058265;28;20282;-67
2022/10/01 04:52:23;;;;;;;6.47;5.20;;;11.80;99.90;;;;;;5057943;28;20055;-68
2022/10/01 04:54:51;;;;;;;6.43;5.40;;;11.80;99.90;;;;;;5076120;28;20048;-68
2022/10/01 04:57:19;;;;;;;8.67;6.50;;;11.80;99.90;;;;;;5075838;28;20052;-68
2022/10/01 04:59:45;;;;;;;8.57;6.90;;;11.70;99.90;;;;;;5075829;28;20274;-68
2022/10/01 05:02:11;;;;;;;9.53;6.73;;;11.70;99.90;;;;;;5075788;28;20433;-68
2022/10/01 05:04:36;;;;;;;9.27;6.10;;;11.70;99.90;;;;;;5057692;28;20055;-68
2022/10/01 05:07:02;;;;;;;8.93;6.10;;;11.80;99.90;;;;;;5075899;28;20113;-68
2022/10/01 05:09:27;;;;;;;9.93;7.10;;;11.80;99.90;;;;;;5057767;28;20044;-68
2022/10/01 05:11:53;;;;;;;9.57;7.73;;;11.80;99.90;;;;;;5076264;28;20044;-68
2022/10/01 05:14:20;;;;;;;12.13;8.30;;;11.80;99.90;;;;;;5057804;28;20482;-68
2022/10/01 05:16:46;;;;;;;12.03;7.97;;;11.80;99.90;;;;;;5075241;28;20048;-68
2022/10/01 05:19:12;;;;;;;11.60;8.00;;;11.90;99.90;;;;;;5075094;28;20335;-68
2022/10/01 05:21:38;;;;;;;12.27;8.93;;;11.90;99.90;;;;;;5075138;28;20274;-68
2022/10/01 05:24:04;;;;;;;13.33;8.10;;;11.90;99.90;;;;;;5074763;28;20329;-68
2022/10/01 05:26:30;;;;;;;13.03;9.20;;;12.00;99.90;;;;;;5057534;28;20051;-68
2022/10/01 05:28:58;;;;;;;13.47;9.40;;;12.00;99.90;;;;;;5075488;28;20275;-68
2022/10/01 05:31:24;;;;;;;14.43;9.37;;;12.00;99.90;;;;;;5075158;28;20283;-72
2022/10/01 05:33:49;;;;;;;11.57;9.67;;;12.10;99.90;;;;;;5075264;28;20747;-68
2022/10/01 05:36:15;;;;;;;14.07;10.83;;;12.10;99.90;;;;;;5074943;28;20323;-67
2022/10/01 05:38:41;;;;;;;15.53;11.13;;;12.10;99.90;;;;;;5057121;28;20109;-68
2022/10/01 05:41:06;;;;;;;15.63;10.90;;;12.20;99.90;;;;;;5075032;28;20040;-68
2022/10/01 05:43:32;;;;;;;16.17;10.93;;;12.20;99.90;;;;;;5074430;28;20052;-68
2022/10/01 05:46:02;;;;;;;22.50;12.93;;;;;;;;;;5075277;28;20054;-67
2022/10/01 05:48:35;;;;;;;13.13;10.63;;;12.20;99.90;;;;;;5057031;28;20055;-68
2022/10/01 05:51:05;;;;;;;18.37;10.33;;;12.20;99.90;;;;;;5074912;28;20279;-67
2022/10/01 05:53:31;;;;;;;18.27;11.00;;;12.30;99.90;;;;;;5074513;28;20322;-67
2022/10/01 05:56:01;;;;;;;16.27;10.30;;;12.30;99.90;;;;;;5057270;28;20639;-68
2022/10/01 05:58:27;;;;;;;19.43;11.47;;;12.30;99.90;;;;;;5074759;28;20322;-72
2022/10/01 06:00:54;;;;;;;16.97;10.87;;;12.30;99.90;;;;;;5056960;28;20318;-68
2022/10/01 06:03:20;;;;;;;16.03;10.80;;;12.30;99.90;;;;;;5074565;28;20476;-67
2022/10/01 06:05:46;;;;;;;20.27;12.90;;;12.40;99.90;;;;;;5074328;28;20646;-68
2022/10/01 06:08:13;;;;;;;20.63;12.60;;;12.40;99.90;;;;;;5074641;28;20275;-68
2022/10/01 06:10:39;;;;;;;18.10;12.73;;;12.40;99.90;;;;;;5074311;28;20279;-68
2022/10/01 06:13:06;;;;;;;18.23;11.13;;;12.50;99.90;;;;;;5074443;28;20275;-68
2022/10/01 06:15:36;;;;;;;19.50;11.40;;;12.50;99.90;;;;;;5074068;28;20279;-68
2022/10/01 06:18:07;;;;;;;26.37;12.17;;;12.60;99.90;;;;;;5074480;28;20634;-67
2022/10/01 06:20:33;;;;;;;23.27;10.70;;;12.60;99.90;;;;;;5073964;28;20834;-68
2022/10/01 06:23:00;;;;;;;18.93;8.33;;;12.60;99.90;;;;;;5056447;28;20344;-68
2022/10/01 06:25:28;;;;;;;18.53;9.00;;;12.60;99.90;;;;;;5074227;28;20275;-68
2022/10/01 06:27:56;;;;;;;21.50;6.30;;;12.60;99.90;;;;;;5073912;28;20270;-68
2022/10/01 06:30:30;;;;;;;15.53;7.13;;;12.70;99.90;;;;;;5074359;28;20339;-68
2022/10/01 06:33:15;;;;;;;18.47;6.70;;;12.70;99.90;;;;;;5056179;28;20270;-68
2022/10/01 06:35:49;;;;;;;16.85;7.18;;;12.80;99.90;;;;;;5073580;28;20361;-68
2022/10/01 06:38:16;;;;;;;24.50;7.77;;;12.90;99.90;;;;;;5073996;28;20503;-68
2022/10/01 06:40:43;;;;;;;18.83;6.57;;;12.90;99.90;;;;;;5073617;28;20828;-68
2022/10/01 06:43:09;;;;;;;17.60;6.00;;;12.90;99.90;;;;;;5056116;28;20299;-68
2022/10/01 06:45:41;;;;;;;17.30;5.43;;;12.90;99.90;;;;;;5055940;28;20289;-68
2022/10/01 06:48:12;;;;;;;18.23;4.50;;;12.90;99.90;;;;;;5074051;28;20293;-68
2022/10/01 06:50:39;;;;;;;16.03;4.30;;;13.00;99.90;;;;;;5056102;28;20366;-68
2022/10/01 06:53:05;;;;;;;14.23;3.47;;;13.00;99.90;;;;;;5073823;28;20278;-68
2022/10/01 06:55:32;;;;;;;16.20;3.47;;;12.90;99.90;;;;;;5073658;28;20754;-67
2022/10/01 06:58:07;;;;;;;16.53;3.50;;;12.90;99.90;;;;;;5055504;28;20044;-68
2022/10/01 07:00:34;;;;;;;12.57;3.40;;;12.80;99.90;;;;;;5074091;28;20281;-67
2022/10/01 07:03:00;;;;;;;14.63;3.03;;;12.80;99.90;;;;;;5073284;28;20092;-67
2022/10/01 07:05:27;;;;;;;14.03;3.60;;;12.80;99.90;;;;;;5073549;28;20288;-67
2022/10/01 07:07:52;;;;;;;14.93;3.37;;;12.80;99.90;;;;;;5072860;28;20762;-67
2022/10/01 07:10:20;;;;;;;18.90;4.20;;;12.70;99.90;;;;;;5039253;28;20291;-68
2022/10/01 07:12:49;;;;;;;17.20;3.00;;;12.80;99.90;;;;;;5055297;28;20037;-68
2022/10/01 07:15:24;;;;;;;15.13;3.37;;;12.70;99.90;;;;;;5073365;28;20304;-68
2022/10/01 07:17:51;;;;;;;15.73;3.72;;;12.60;99.90;;;;;;5072828;28;20348;-68
2022/10/01 07:20:18;;;;;;;15.13;3.10;;;12.70;99.90;;;;;;5073054;28;20408;-68
2022/10/01 07:22:46;;;;;;;14.40;3.27;;;12.80;99.90;;;;;;5072998;28;20752;-68
2022/10/01 07:25:12;;;;;;;14.57;2.83;;;12.70;99.90;;;;;;5039067;28;20287;-67
2022/10/01 07:27:38;;;;;;;14.37;2.80;;;12.90;99.90;;;;;;5073195;28;20392;-68
2022/10/01 07:30:05;;;;;;;16.23;3.00;;;13.10;99.90;;;;;;5073227;28;20314;-67
2022/10/01 07:32:32;;;;;;;15.23;3.03;;;13.20;99.90;;;;;;5073150;28;20086;-67
2022/10/01 07:34:58;;;;;;;16.50;3.30;;;13.20;99.90;;;;;;5072912;28;20274;-70
2022/10/01 07:37:24;;;;;;;10.03;2.03;;;13.30;99.90;;;;;;5073070;28;20770;-68
2022/10/01 07:39:49;;;;;;;10.93;2.07;;;13.40;99.90;;;;;;5072923;28;20055;-68
2022/10/01 07:42:16;;;;;;;8.97;2.17;;;13.50;99.90;;;;;;5072993;28;20290;-68
2022/10/01 07:44:42;;;;;;;10.83;2.10;;;13.60;99.90;;;;;;5072821;28;20049;-71
2022/10/01 07:47:07;;;;;;;11.43;2.43;;;13.60;99.90;;;;;;5055057;28;20278;-68
2022/10/01 07:49:33;;;;;;;14.00;2.57;;;13.60;99.90;;;;;;5073018;28;20746;-67
2022/10/01 07:51:59;;;;;;;9.93;2.50;;;13.60;99.90;;;;;;5072771;28;20045;-68
2022/10/01 07:54:25;;;;;;;13.67;2.77;;;13.60;99.90;;;;;;5073065;28;20044;-68
2022/10/01 07:56:54;;;;;;;16.77;3.00;;;13.70;99.90;;;;;;5072707;28;20044;-68
2022/10/01 07:59:21;;;;;;;14.97;2.47;;;13.80;99.90;;;;;;5072909;28;20344;-68
2022/10/01 08:01:50;;;;;;;17.87;2.90;;;13.90;99.90;;;;;;5072565;28;20284;-68
2022/10/01 08:07:02;;;;;;;19.20;3.47;;;14.00;99.90;;;;;;5072631;28;20302;-67
2022/10/01 08:09:27;;;;;;;18.07;3.67;;;14.10;99.90;;;;;;5072887;28;20824;-67
2022/10/01 08:11:53;;;;;;;16.33;3.90;;;14.10;99.90;;;;;;5054913;28;20473;-68
2022/10/01 08:14:19;;;;;;;18.83;4.53;;;;;;;;;;5072459;28;20044;-68
2022/10/01 08:16:46;;;;;;;14.63;3.23;;;;;;;;;;5072715;28;20049;-70
2022/10/01 08:19:13;;;;;;;16.53;4.30;;;;;;;;;;5072768;28;20302;-68
2022/10/01 08:21:40;;;;;;;20.20;4.37;;;;;;;;;;5072535;28;20814;-68
2022/10/01 08:24:06;;;;;;;27.17;3.80;;;;;;;;;;5072382;28;20287;-68
2022/10/01 08:26:32;;;;;;;16.17;3.93;;;;;;;;;;5072630;28;20274;-68
2022/10/01 08:28:58;;;;;;;21.03;3.47;;;14.80;99.90;;;;;;5072444;28;20277;-68
2022/10/01 08:31:25;;;;;;;21.70;4.27;;;14.90;99.90;;;;;;5072574;28;20314;-67
2022/10/01 08:33:51;;;;;;;23.73;4.97;;;14.90;99.90;;;;;;5054550;28;20692;-68
2022/10/01 08:36:17;;;;;;;21.80;3.83;;;14.90;99.90;;;;;;5072504;28;20044;-67
2022/10/01 08:38:47;;;;;;;18.97;3.50;;;14.90;99.90;;;;;;5072495;28;20279;-68
2022/10/01 08:41:27;;;;;;;17.57;2.93;;;14.80;99.90;;;;;;5072238;28;20278;-67
2022/10/01 08:43:53;;;;;;;14.07;2.77;;;14.70;99.90;;;;;;5072231;28;20040;-68
2022/10/01 08:46:25;;;;;;;21.33;3.27;;;14.60;99.90;;;;;;5072405;28;20342;-68
2022/10/01 08:49:31;;;;;;;17.83;2.93;;;14.50;99.90;;;;;;5054475;28;20679;-69
2022/10/01 08:52:02;;;;;;;;;;;14.40;99.90;;;;;;5072448;28;20047;-68
2022/10/01 08:54:28;;;;;;;12.70;2.70;;;14.30;99.90;;;;;;5055152;28;19920;-68
2022/10/01 08:56:57;;;;;;;15.40;2.93;;;14.10;99.90;;;;;;5054559;28;20059;-69
2022/10/01 08:59:38;;;;;;;13.30;2.80;;;14.10;99.90;;;;;;5056688;28;20392;-68
2022/10/01 09:02:26;;;;;;;11.47;2.50;;;14.00;99.90;;;;;;5057792;28;20378;-68
2022/10/01 09:05:19;;;;;;;12.40;2.10;;;13.90;99.90;;;;;;5075972;28;20283;-77
2022/10/01 09:07:59;;;;;;;11.97;1.90;;;13.90;99.90;;;;;;5074860;28;20301;-72
2022/10/01 09:10:27;;;;;;;9.70;2.50;;;13.90;99.90;;;;;;5057887;28;20051;-74
2022/10/01 09:13:14;;;;;;;12.97;2.13;;;14.00;99.90;;;;;;5075360;28;20282;-76
2022/10/01 09:15:55;;;;;;;11.10;2.73;;;14.10;99.90;;;;;;5075346;28;20873;-73
2022/10/01 09:18:46;;;;;;;13.53;3.20;;;14.30;99.90;;;;;;5074645;28;20797;-73
2022/10/01 09:21:24;;;;;;;11.87;2.47;;;14.40;99.90;;;;;;5073855;28;20051;-73
2022/10/01 09:24:02;;;;;;;14.73;3.20;;;14.50;99.90;;;;;;5073308;28;20758;-71
2022/10/01 09:26:27;;;;;;;16.07;2.97;;;14.70;99.90;;;;;;5073336;28;20283;-73
2022/10/01 09:28:57;;;;;;;17.23;2.90;;;14.90;99.90;;;;;;5057118;28;20037;-73
2022/10/01 09:31:38;;;;;;;14.83;2.90;;;15.00;99.90;;;;;;5072529;28;20109;-73
2022/10/01 09:34:18;;;;;;;17.53;3.23;;;15.00;99.90;;;;;;5074581;28;20184;-74
2022/10/01 09:37:04;;;;;;;13.37;2.57;;;15.00;99.90;;;;;;5072752;28;20127;-73
2022/10/01 09:39:55;;;;;;;17.63;2.77;;;;;;;;;;5073814;28;20045;-68
2022/10/01 09:42:23;;;;;;;17.60;2.90;;;;;;;;;;5028787;28;20088;-69
2022/10/01 09:44:50;;;;;;;14.80;2.60;;;;;;;;;;5040897;28;20527;-71
2022/10/01 09:47:18;;;;;;;19.60;3.70;;;;;;;;;;5074686;28;20185;-71
2022/10/01 09:49:45;;;;;;;15.47;3.17;;;;;;;;;;5057423;28;20384;-70
2022/10/01 09:52:25;;;;;;;12.17;2.77;;;;;;;;;;5074508;28;20051;-72
2022/10/01 09:54:57;;;;;;;11.80;2.00;;;;;;;;;;5075096;28;20052;-72
2022/10/01 09:57:26;;;;;;;17.23;1.93;;;;;;;;;;5074475;28;20048;-71
2022/10/01 09:59:56;;;;;;;9.40;2.23;;;;;;;;;;5074631;28;20086;-72
2022/10/01 10:02:23;;;;;;;9.80;2.10;;;;;;;;;;5056168;28;20045;-72
2022/10/01 10:04:59;;;;;;;14.97;2.37;;;;;;;;;;5074363;28;20451;-71
2022/10/01 10:07:25;;;;;;;16.87;3.00;;;;;;;;;;5074421;28;20052;-74
2022/10/01 10:09:52;;;;;;;11.97;2.30;;;;;;;;;;5039519;28;20310;-68
2022/10/01 10:12:26;;;;;;;15.40;2.17;;;;;;;;;;5074028;28;20124;-75
2022/10/01 10:14:54;;;;;;;17.77;2.65;;;;;;;;;;5074038;28;20319;-74
2022/10/01 10:17:21;;;;;;;12.07;2.57;;;;;;;;;;5073728;28;20120;-73
2022/10/01 10:19:51;;;;;;;13.20;2.60;;;;;;;;;;5074358;28;20285;-72
2022/10/01 10:22:27;;;;;;;11.37;2.10;;;;;;;;;;5073966;28;20368;-74
2022/10/01 10:24:56;;;;;;;9.53;1.90;;;;;;;;;;5074322;28;20728;-72
2022/10/01 10:27:25;;;;;;;11.60;2.20;;;;;;;;;;5073649;28;21128;-74
2022/10/01 10:30:01;;;;;;;7.63;1.83;;;;;;;;;;5073987;28;20282;-72
2022/10/01 10:32:28;;;;;;;13.53;2.20;;;;;;;;;;5073838;28;20279;-71
2022/10/01 10:34:56;;;;;;;12.00;2.60;;;;;;;;;;5056585;28;20298;-71
2022/10/01 10:37:26;;;;;;;15.23;2.63;;;;;;;;;;5073730;28;20048;-70
2022/10/01 10:39:53;;;;;;;15.03;2.60;;;;;;;;;;5074017;28;20290;-70
2022/10/01 10:42:21;;;;;;;15.00;2.73;;;;;;;;;;5073499;28;20036;-68
2022/10/01 10:44:49;;;;;;;17.93;3.20;;;;;;;;;;5073825;28;20294;-67
2022/10/01 10:47:16;;;;;;;14.43;2.93;;;;;;;;;;5073150;28;20511;-68
2022/10/01 10:50:02;;;;;;;13.67;2.63;;;;;;;;;;5056035;28;20685;-67
2022/10/01 10:52:32;;;;;;;13.23;2.80;;;;;;;;;;5055769;28;20448;-68
2022/10/01 10:55:00;;;;;;;19.53;2.93;;;;;;;;;;5074030;28;20059;-68
2022/10/01 10:57:33;;;;;;;14.40;3.10;;;;;;;;;;5073260;28;20045;-68
2022/10/01 10:59:59;;;;;;;17.67;3.03;;;;;;;;;;5073650;28;20049;-67
2022/10/01 11:02:29;;;;;;;16.37;2.70;;;;;;;;;;5073106;28;20044;-67
2022/10/01 11:04:57;;;;;;;16.57;2.80;;;;;;;;;;5073534;28;20066;-67
2022/10/01 11:07:24;;;;;;;19.50;2.83;;;;;;;;;;5073201;28;20550;-69
2022/10/01 11:09:56;;;;;;;18.53;3.00;;;;;;;;;;5066216;28;20041;-71
2022/10/01 11:12:29;;;;;;;16.90;3.07;;;;;;;;;;5066609;28;20040;-70
2022/10/01 11:15:08;;;;;;;18.07;3.30;;;;;;;;;;5066279;28;20479;-69
2022/10/01 11:17:40;;;;;;;24.63;2.90;;;;;;;;;;5066505;28;20036;-68
2022/10/01 11:20:10;;;;;;;18.33;3.80;;;;;;;;;;5066667;28;20060;-68
2022/10/01 11:22:42;;;;;;;17.30;2.80;;;;;;;;;;5065351;28;20044;-68
2022/10/01 11:25:17;;;;;;;15.77;3.83;;;;;;;;;;5047357;28;20047;-67
2022/10/01 11:27:43;;;;;;;16.00;2.60;;;;;;;;;;5066496;28;20056;-68
2022/10/01 11:30:13;;;;;;;17.77;2.83;;;;;;;;;;5066812;28;20048;-70
2022/10/01 11:32:44;;;;;;;17.70;2.90;;;;;;;;;;5049665;28;20044;-68
2022/10/01 11:35:11;;;;;;;12.07;2.30;;;;;;;;;;5065843;28;20048;-68
2022/10/01 11:37:41;;;;;;;11.07;2.10;;;;;;;;;;5066478;28;20387;-68
2022/10/01 11:40:33;;;;;;;12.53;3.17;;;;;;;;;;5066467;28;20090;-68
2022/10/01 11:43:02;;;;;;;16.10;3.20;;;;;;;;;;5045107;28;20048;-67
2022/10/01 11:45:30;;;;;;;14.77;2.97;;;;;;;;;;5065034;28;20627;-68
2022/10/01 11:48:12;;;;;;;15.83;3.20;;;;;;;;;;5066651;28;20412;-68
2022/10/01 11:50:44;;;;;;;12.80;2.83;;;;;;;;;;5066194;28;20040;-67
2022/10/01 11:53:29;;;;;;;16.37;3.10;;;;;;;;;;5066491;28;20056;-68
2022/10/01 11:59:07;;;;;;;16.43;2.87;;;;;;;;;;5066542;28;20056;-68
2022/10/01 12:01:52;;;;;;;14.07;3.63;;;;;;;;;;5066591;28;20260;-67
2022/10/01 12:04:45;;;;;;;14.77;3.10;;;;;;;;;;5046646;28;20454;-70
2022/10/01 12:07:11;;;;;;;10.53;3.00;;;;;;;;;;5044415;28;20612;-68
2022/10/01 12:09:37;;;;;;;9.63;2.20;;;;;;;;;;5065748;28;20053;-68
2022/10/01 12:12:05;;;;;;;16.13;3.30;;;;;;;;;;5066245;28;20111;-70
2022/10/01 12:14:43;;;;;;;12.67;2.57;;;;;;;;;;5065286;28;20051;-69
2022/10/01 12:17:27;;;;;;;10.30;2.20;;;;;;;;;;5066918;28;20045;-71
2022/10/01 12:19:56;;;;;;;14.02;2.60;;;;;;;;;;5064697;28;20511;-67
2022/10/01 12:22:33;;;;;;;11.10;2.40;;;;;;;;;;5066192;28;20053;-71
2022/10/01 12:24:59;;;;;;;13.97;2.90;;;;;;;;;;5064613;28;20122;-69
2022/10/01 12:27:44;;;;;;;11.30;2.47;;;;;;;;;;5066852;28;20055;-68
2022/10/01 12:30:19;;;;;;;14.65;3.17;;;;;;;;;;5065759;28;20060;-70
2022/10/01 12:32:48;;;;;;;15.05;2.95;;;;;;;;;;5066259;28;20136;-68
2022/10/01 12:35:17;;;;;;;18.30;3.37;;;;;;;;;;5069266;28;20142;-68
2022/10/01 12:37:53;;;;;;;18.60;6.60;;;;;;;;;;5070118;28;20048;-67
2022/10/01 12:40:25;;;;;;;18.63;3.37;;;;;;;;;;5070530;28;20048;-68
2022/10/01 12:43:00;;;;;;;15.13;3.10;;;;;;;;;;5069884;28;20630;-68
2022/10/01 12:45:45;;;;;;;15.70;3.90;;;;;;;;;;5050658;28;20036;-68
2022/10/01 12:48:31;;;;;;;8.18;1.90;;;;;;;;;;5052165;28;20048;-69
2022/10/01 12:50:57;;;;;;;8.53;2.00;;;;;;;;;;5069124;28;20060;-67
2022/10/01 12:53:26;;;;;;;8.20;1.93;;;;;;;;;;5068911;28;20040;-70
2022/10/01 12:56:10;;;;;;;9.40;2.20;;;;;;;;;;5070495;28;20048;-67
2022/10/01 12:58:36;;;;;;;11.43;2.20;;;;;;;;;;5069189;28;20056;-68
2022/10/01 13:01:14;;;;;;;12.50;2.67;;;;;;;;;;5070089;28;20045;-66
2022/10/01 13:03:59;;;;;;;8.17;2.10;;;;;;;;;;5068074;28;20489;-71
2022/10/01 13:06:43;;;;;;;11.43;2.80;;;;;;;;;;5069236;28;20049;-72
2022/10/01 13:09:20;;;;;;;9.75;2.63;;;;;;;;;;5066566;28;20040;-70
2022/10/01 13:12:11;;;;;;;10.90;2.20;;;;;;;;;;5068717;28;20040;-68
2022/10/01 13:14:39;;;;;;;13.27;2.53;;;;;;;;;;5067360;28;20044;-70
2022/10/01 13:17:08;;;;;;;15.10;2.70;;;;;;;;;;5051827;28;20045;-67
2022/10/01 13:19:43;;;;;;;13.90;2.80;;;;;;;;;;5069481;28;20053;-67
2022/10/01 13:22:20;;;;;;;12.03;2.40;;;;;;;;;;5069232;28;20047;-70
2022/10/01 13:25:05;;;;;;;14.73;2.60;;;;;;;;;;5067445;28;20091;-67
2022/10/01 13:27:37;;;;;;;18.17;3.03;;;;;;;;;;5050635;28;20045;-68
2022/10/01 13:30:13;;;;;;;16.20;3.10;;;;;;;;;;5049888;28;20102;-68
2022/10/01 13:32:53;;;;;;;14.13;2.93;;;;;;;;;;5065867;28;20047;-71
2022/10/01 13:35:23;;;;;;;18.07;2.90;;;;;;;;;;5064779;28;20722;-69